Thunder radar more information blitzortung!


Radar de pluja more information rain snow radar


Visita la nostra xarxa de llocs de meteo:

Template documentation
and downloads

And another site



No particular awareness of the weather is required.    There are no Weather-warnings

Pagina Historial Weather Underground text

Diari Resum May 2, 2016 Unitats:  Mètric    Imperial   Tant
« Previous Dia
SegĂźent Dia »
Diari Setmana Mensual Anual Personalitzada
  Maxima: Minima: Media:
Temperatura: 23.4 °C 7.1 °C 17.2 °C
Punt de rosada: 5.0 °C -4.3 °C 1.9 °C
Humitat: 62 % 26 % 37 %
Wind Speed: 20.4 km/h 0.0 km/h 6.4 km/h
RĂ fegues de vent: 20.4 km/h - -
Vent:- - SSW
Pression baro: 1022.9 hPa 1017.8 hPa -
Precipitacions: 0.0 mm    
Historical Graphs
 
 
Dades de taula per May 2, 2016
Temps Temperatura Punt de rosada Pression baro Vent Wind Speed RĂ fegues de vent Humitat Rainfall Rate (Hourly)
00:00 8.3 °C -4.2 °C 1021.9 hPa SW 3.2 km/h 4.8 km/h 41 % 0.0 mm
00:02 11.3 °C -0.2 °C 1022.9 hPa Calm     45 % 0.0 mm
00:10 8.1 °C -4.1 °C 1021.9 hPa SW 1.6 km/h 4.8 km/h 42 % 0.0 mm
00:20 8.0 °C -4.2 °C 1021.9 hPa WSW 1.6 km/h 4.8 km/h 42 % 0.0 mm
00:30 7.8 °C -4.3 °C 1020.9 hPa WSW 3.2 km/h 4.8 km/h 42 % 0.0 mm
00:40 7.8 °C -4.0 °C 1020.9 hPa SW 3.2 km/h 6.4 km/h 43 % 0.0 mm
00:50 7.6 °C -3.9 °C 1021.9 hPa SW 1.6 km/h 3.2 km/h 44 % 0.0 mm
01:00 7.7 °C -3.8 °C 1021.9 hPa WSW 3.2 km/h 4.8 km/h 44 % 0.0 mm
01:10 7.8 °C -3.7 °C 1021.9 hPa West 1.6 km/h 9.7 km/h 44 % 0.0 mm
01:20 7.7 °C -3.8 °C 1021.9 hPa West 3.2 km/h 8.0 km/h 44 % 0.0 mm
01:30 7.5 °C -4.0 °C 1021.9 hPa Calm   3.2 km/h 44 % 0.0 mm
01:40 7.4 °C -4.1 °C 1021.9 hPa WSW 1.6 km/h 3.2 km/h 44 % 0.0 mm
01:50 7.3 °C -3.9 °C 1021.9 hPa West 3.2 km/h 6.4 km/h 45 % 0.0 mm
02:00 7.1 °C -4.1 °C 1021.9 hPa WSW 3.2 km/h 3.2 km/h 45 % 0.0 mm
02:10 7.1 °C -3.8 °C 1021.9 hPa WSW 1.6 km/h 4.8 km/h 46 % 0.0 mm
02:20 7.1 °C -3.8 °C 1022.9 hPa WSW 4.8 km/h 4.8 km/h 46 % 0.0 mm
02:30 7.2 °C -3.7 °C 1021.9 hPa WSW 4.8 km/h 4.8 km/h 46 % 0.0 mm
02:40 7.5 °C -3.1 °C 1021.9 hPa SW 3.2 km/h 4.8 km/h 47 % 0.0 mm
02:50 7.8 °C -2.8 °C 1020.9 hPa SW 1.6 km/h 3.2 km/h 47 % 0.0 mm
03:00 8.4 °C -2.3 °C 1021.9 hPa South 1.6 km/h 4.8 km/h 47 % 0.0 mm
03:10 8.5 °C -2.2 °C 1021.9 hPa South 1.6 km/h 4.8 km/h 47 % 0.0 mm
03:20 8.5 °C -2.5 °C 1022.9 hPa SW 1.6 km/h 4.8 km/h 46 % 0.0 mm
03:30 9.2 °C -1.6 °C 1021.9 hPa WSW 3.2 km/h 6.4 km/h 47 % 0.0 mm
03:40 9.3 °C -1.4 °C 1021.9 hPa West 3.2 km/h 3.2 km/h 47 % 0.0 mm
03:50 9.6 °C -1.4 °C 1021.9 hPa WSW 3.2 km/h 3.2 km/h 46 % 0.0 mm
04:00 9.9 °C -1.2 °C 1021.9 hPa WSW 1.6 km/h 6.4 km/h 46 % 0.0 mm
04:10 10.7 °C -0.4 °C 1021.9 hPa West 3.2 km/h 4.8 km/h 46 % 0.0 mm
04:20 11.2 °C 0.0 °C 1022.9 hPa WSW 3.2 km/h 6.4 km/h 46 % 0.0 mm
04:30 11.5 °C -0.1 °C 1021.9 hPa WSW 4.8 km/h 8.0 km/h 45 % 0.0 mm
04:40 11.9 °C 0.3 °C 1021.9 hPa WSW 4.8 km/h 4.8 km/h 45 % 0.0 mm
04:50 12.6 °C 0.9 °C 1021.9 hPa NW 4.8 km/h 6.4 km/h 45 % 0.0 mm
05:10 13.0 °C 1.0 °C 1021.9 hPa ENE 4.8 km/h 6.4 km/h 44 % 0.0 mm
05:20 13.5 °C 1.4 °C 1021.9 hPa ENE 3.2 km/h 6.4 km/h 44 % 0.0 mm
05:30 14.3 °C 2.2 °C 1021.9 hPa East 4.8 km/h 4.8 km/h 44 % 0.0 mm
05:40 14.7 °C 2.2 °C 1021.9 hPa SSE 3.2 km/h 6.4 km/h 43 % 0.0 mm
10:42 14.9 °C 2.4 °C 1021.9 hPa West 6.1 km/h 6.1 km/h 43 % 0.0 mm
10:47 15.5 °C 2.9 °C 1021.9 hPa West 7.9 km/h 7.9 km/h 43 % 0.0 mm
10:52 15.9 °C 2.7 °C 1021.9 hPa NE 7.4 km/h 7.6 km/h 41 % 0.0 mm
10:57 15.6 °C 2.4 °C 1021.9 hPa NNE 11.1 km/h 11.1 km/h 41 % 0.0 mm
11:02 15.7 °C 2.4 °C 1021.9 hPa ENE 9.3 km/h 9.3 km/h 41 % 0.0 mm
11:07 16.2 °C 3.3 °C 1021.9 hPa ENE 7.4 km/h 7.4 km/h 42 % 0.0 mm
11:12 16.5 °C 3.2 °C 1021.9 hPa ENE 7.4 km/h 7.4 km/h 41 % 0.0 mm
11:17 16.7 °C 3.4 °C 1021.9 hPa NE 3.7 km/h 3.7 km/h 41 % 0.0 mm
11:22 16.9 °C 3.6 °C 1021.9 hPa West 5.6 km/h 5.6 km/h 41 % 0.0 mm
11:27 17.5 °C 3.7 °C 1021.9 hPa WSW 3.7 km/h 3.7 km/h 40 % 0.0 mm
11:32 17.8 °C 3.7 °C 1021.9 hPa SW 9.3 km/h 9.3 km/h 39 % 0.0 mm
11:37 18.1 °C 3.6 °C 1021.9 hPa WNW 5.6 km/h 5.6 km/h 38 % 0.0 mm
11:42 18.2 °C 3.3 °C 1020.9 hPa SSE 11.1 km/h 11.1 km/h 37 % 0.0 mm
11:47 18.1 °C 2.4 °C 1020.9 hPa SW 13.0 km/h 13.0 km/h 35 % 0.0 mm
11:52 18.2 °C 2.5 °C 1020.9 hPa SW 7.4 km/h 7.4 km/h 35 % 0.0 mm
11:57 18.5 °C 2.7 °C 1020.9 hPa SW 7.4 km/h 7.4 km/h 35 % 0.0 mm
12:02 18.4 °C 2.2 °C 1020.9 hPa WSW 9.3 km/h 9.3 km/h 34 % 0.0 mm
12:07 18.5 °C 2.3 °C 1020.9 hPa NW 7.9 km/h 7.9 km/h 34 % 0.0 mm
12:12 18.6 °C 2.4 °C 1020.9 hPa WSW 14.8 km/h 14.8 km/h 34 % 0.0 mm
12:17 18.8 °C 2.6 °C 1020.9 hPa WSW 9.7 km/h 9.7 km/h 34 % 0.0 mm
12:22 19.1 °C 2.4 °C 1020.9 hPa WSW 12.2 km/h 12.2 km/h 33 % 0.0 mm
12:27 19.0 °C 2.3 °C 1019.9 hPa WSW 9.3 km/h 9.3 km/h 33 % 0.0 mm
12:32 19.4 °C 2.7 °C 1019.9 hPa West 9.3 km/h 9.3 km/h 33 % 0.0 mm
12:37 19.6 °C 2.4 °C 1019.9 hPa SW 11.1 km/h 11.1 km/h 32 % 0.0 mm
12:42 19.9 °C 2.7 °C 1019.9 hPa WNW 7.4 km/h 7.4 km/h 32 % 0.0 mm
12:47 19.7 °C 2.6 °C 1019.9 hPa SW 10.0 km/h 10.0 km/h 32 % 0.0 mm
12:57 19.8 °C 2.2 °C 1019.9 hPa WNW 14.8 km/h 14.8 km/h 31 % 0.0 mm
13:02 20.2 °C 2.1 °C 1019.9 hPa NW 13.0 km/h 13.0 km/h 30 % 0.0 mm
13:07 19.9 °C 2.3 °C 1019.9 hPa West 14.8 km/h 14.8 km/h 31 % 0.0 mm
13:17 20.3 °C 2.2 °C 1020.9 hPa West 7.4 km/h 7.4 km/h 30 % 0.0 mm
13:22 20.5 °C 2.3 °C 1020.9 hPa WSW 14.8 km/h 14.8 km/h 30 % 0.0 mm
13:27 20.2 °C 2.1 °C 1019.9 hPa WNW 9.3 km/h 9.3 km/h 30 % 0.0 mm
13:32 20.7 °C 2.5 °C 1019.9 hPa WSW 14.8 km/h 14.8 km/h 30 % 0.0 mm
13:37 20.5 °C 2.3 °C 1019.9 hPa SW 9.5 km/h 9.5 km/h 30 % 0.0 mm
13:42 20.6 °C 2.4 °C 1019.9 hPa WSW 9.3 km/h 9.3 km/h 30 % 0.0 mm
13:47 20.7 °C 2.5 °C 1019.9 hPa SW 16.7 km/h 16.7 km/h 30 % 0.0 mm
13:52 21.1 °C 2.8 °C 1019.9 hPa WSW 11.1 km/h 11.1 km/h 30 % 0.0 mm
13:57 21.0 °C 2.7 °C 1019.9 hPa WSW 16.1 km/h 16.1 km/h 30 % 0.0 mm
14:02 21.0 °C 2.7 °C 1019.9 hPa WSW 7.4 km/h 8.7 km/h 30 % 0.0 mm
14:07 20.9 °C 2.7 °C 1019.9 hPa SW 14.8 km/h 14.8 km/h 30 % 0.0 mm
14:12 21.0 °C 2.7 °C 1019.9 hPa West 14.8 km/h 14.8 km/h 30 % 0.0 mm
14:17 21.5 °C 3.2 °C 1019.9 hPa WSW 9.3 km/h 9.3 km/h 30 % 0.0 mm
14:22 21.8 °C 2.9 °C 1019.9 hPa SW 20.1 km/h 20.1 km/h 29 % 0.0 mm
14:27 21.3 °C 2.6 °C 1019.9 hPa SW 9.5 km/h 10.0 km/h 29 % 0.0 mm
14:32 21.7 °C 2.9 °C 1019.9 hPa SW 13.0 km/h 13.0 km/h 29 % 0.0 mm
14:37 21.9 °C 3.1 °C 1019.9 hPa NNE 5.6 km/h 5.6 km/h 29 % 0.0 mm
14:42 22.0 °C 3.1 °C 1019.9 hPa NNW 12.6 km/h 12.6 km/h 29 % 0.0 mm
14:47 21.8 °C 2.9 °C 1019.9 hPa WSW 20.4 km/h 20.4 km/h 29 % 0.0 mm
14:52 22.1 °C 3.2 °C 1019.9 hPa SW 7.4 km/h 7.4 km/h 29 % 0.0 mm
14:57 21.9 °C 3.1 °C 1019.9 hPa WSW 13.0 km/h 13.0 km/h 29 % 0.0 mm
15:02 22.0 °C 3.1 °C 1019.9 hPa NW 16.1 km/h 16.1 km/h 29 % 0.0 mm
15:07 22.0 °C 3.1 °C 1019.9 hPa WSW 7.4 km/h 7.4 km/h 29 % 0.0 mm
15:12 22.1 °C 3.2 °C 1019.9 hPa WSW 11.9 km/h 11.9 km/h 29 % 0.0 mm
15:17 22.1 °C 3.2 °C 1019.9 hPa East 14.8 km/h 14.8 km/h 29 % 0.0 mm
15:22 21.9 °C 3.1 °C 1019.9 hPa WSW 16.7 km/h 16.7 km/h 29 % 0.0 mm
15:27 22.1 °C 3.2 °C 1018.8 hPa West 11.1 km/h 11.1 km/h 29 % 0.0 mm
15:32 22.4 °C 3.0 °C 1018.8 hPa West 11.1 km/h 11.1 km/h 28 % 0.0 mm
15:42 21.9 °C 2.6 °C 1019.9 hPa West 18.5 km/h 18.5 km/h 28 % 0.0 mm
15:47 21.8 °C 1.9 °C 1019.9 hPa West 9.3 km/h 12.2 km/h 27 % 0.0 mm
15:52 21.8 °C 1.4 °C 1019.9 hPa SW 14.8 km/h 15.1 km/h 26 % 0.0 mm
15:57 21.9 °C 2.1 °C 1018.8 hPa WSW 9.5 km/h 9.5 km/h 27 % 0.0 mm
16:02 21.9 °C 2.1 °C 1018.8 hPa SW 16.7 km/h 16.7 km/h 27 % 0.0 mm
16:07 22.4 °C 2.4 °C 1018.8 hPa SW 9.3 km/h 9.3 km/h 27 % 0.0 mm
16:12 22.5 °C 2.6 °C 1018.8 hPa WNW 13.0 km/h 13.0 km/h 27 % 0.0 mm
16:17 22.2 °C 1.8 °C 1018.8 hPa WSW 14.8 km/h 14.8 km/h 26 % 0.0 mm
16:22 22.7 °C 2.7 °C 1018.8 hPa WSW 9.3 km/h 9.3 km/h 27 % 0.0 mm
16:27 23.1 °C 2.6 °C 1018.8 hPa WSW 6.9 km/h 6.9 km/h 26 % 0.0 mm
16:32 22.9 °C 2.9 °C 1018.8 hPa SSW 7.4 km/h 7.4 km/h 27 % 0.0 mm
16:37 22.8 °C 2.8 °C 1018.8 hPa WSW 16.7 km/h 16.7 km/h 27 % 0.0 mm
16:42 22.9 °C 2.4 °C 1017.8 hPa SW 14.8 km/h 14.8 km/h 26 % 0.0 mm
16:47 22.8 °C 2.3 °C 1017.8 hPa WNW 11.1 km/h 11.1 km/h 26 % 0.0 mm
16:52 22.6 °C 2.1 °C 1017.8 hPa WNW 9.3 km/h 9.3 km/h 26 % 0.0 mm
16:57 22.7 °C 2.7 °C 1018.8 hPa WSW 11.1 km/h 11.1 km/h 27 % 0.0 mm
17:02 22.9 °C 2.9 °C 1018.8 hPa South 7.4 km/h 7.4 km/h 27 % 0.0 mm
17:07 23.1 °C 2.6 °C 1018.8 hPa West 7.4 km/h 7.4 km/h 26 % 0.0 mm
17:12 23.3 °C 2.7 °C 1018.8 hPa SSW 7.9 km/h 7.9 km/h 26 % 0.0 mm
17:17 23.1 °C 2.6 °C 1018.8 hPa SW 11.1 km/h 11.1 km/h 26 % 0.0 mm
17:22 23.1 °C 2.6 °C 1018.8 hPa WSW 14.8 km/h 14.8 km/h 26 % 0.0 mm
17:27 23.0 °C 2.4 °C 1018.8 hPa West 14.0 km/h 14.0 km/h 26 % 0.0 mm
17:32 22.7 °C 2.2 °C 1018.8 hPa WSW 9.3 km/h 9.3 km/h 26 % 0.0 mm
17:37 22.7 °C 2.2 °C 1018.8 hPa WSW 11.9 km/h 11.9 km/h 26 % 0.0 mm
17:42 22.9 °C 2.9 °C 1017.8 hPa West 11.1 km/h 11.1 km/h 27 % 0.0 mm
17:47 23.0 °C 2.4 °C 1017.8 hPa NNW 9.3 km/h 9.3 km/h 26 % 0.0 mm
17:52 23.2 °C 2.6 °C 1017.8 hPa ENE 7.4 km/h 7.4 km/h 26 % 0.0 mm
17:57 23.3 °C 2.7 °C 1017.8 hPa WNW 9.3 km/h 9.3 km/h 26 % 0.0 mm
18:02 23.4 °C 2.8 °C 1017.8 hPa West 11.1 km/h 11.1 km/h 26 % 0.0 mm
18:07 23.3 °C 2.7 °C 1017.8 hPa NW 11.1 km/h 11.1 km/h 26 % 0.0 mm
18:12 23.3 °C 2.7 °C 1017.8 hPa NNW 7.4 km/h 7.4 km/h 26 % 0.0 mm
18:17 23.3 °C 2.7 °C 1017.8 hPa ENE 5.6 km/h 5.6 km/h 26 % 0.0 mm
18:22 23.3 °C 2.7 °C 1017.8 hPa NE 9.3 km/h 9.3 km/h 26 % 0.0 mm
18:27 23.4 °C 2.8 °C 1018.8 hPa NW 5.6 km/h 5.6 km/h 26 % 0.0 mm
18:32 23.4 °C 3.3 °C 1018.8 hPa NE 4.7 km/h 4.7 km/h 27 % 0.0 mm
18:37 23.1 °C 3.1 °C 1018.8 hPa South 7.6 km/h 7.6 km/h 27 % 0.0 mm
18:42 23.2 °C 2.6 °C 1018.8 hPa WSW 7.4 km/h 7.4 km/h 26 % 0.0 mm
18:47 23.2 °C 3.2 °C 1018.8 hPa NNW 9.3 km/h 9.3 km/h 27 % 0.0 mm
18:52 22.9 °C 2.9 °C 1018.8 hPa ENE 13.0 km/h 13.0 km/h 27 % 0.0 mm
18:57 22.8 °C 3.3 °C 1018.8 hPa West 6.1 km/h 6.1 km/h 28 % 0.0 mm
19:07 22.6 °C 3.2 °C 1018.8 hPa WNW 3.7 km/h 3.7 km/h 28 % 0.0 mm
19:12 22.2 °C 2.8 °C 1018.8 hPa West 5.6 km/h 5.6 km/h 28 % 0.0 mm
19:17 22.1 °C 2.7 °C 1018.8 hPa WNW 9.3 km/h 9.3 km/h 28 % 0.0 mm
19:20 14.2 °C 4.5 °C 1021.9 hPa ENE 1.6 km/h 3.2 km/h 52 % 0.0 mm
19:22 22.1 °C 2.7 °C 1018.8 hPa WNW 3.7 km/h 3.7 km/h 28 % 0.0 mm
19:27 22.0 °C 2.7 °C 1018.8 hPa West 7.4 km/h 7.4 km/h 28 % 0.0 mm
19:30 14.1 °C 4.7 °C 1021.9 hPa ENE 1.6 km/h 3.2 km/h 53 % 0.0 mm
19:32 21.7 °C 2.4 °C 1018.8 hPa ENE 5.6 km/h 5.6 km/h 28 % 0.0 mm
19:37 21.5 °C 2.2 °C 1018.8 hPa NW 4.2 km/h 4.2 km/h 28 % 0.0 mm
19:40 13.9 °C 4.4 °C 1021.9 hPa NE 1.6 km/h 3.2 km/h 53 % 0.0 mm
19:42 21.5 °C 2.2 °C 1018.8 hPa NW 1.9 km/h 3.2 km/h 28 % 0.0 mm
19:47 21.4 °C 2.1 °C 1018.8 hPa NW 4.2 km/h 4.2 km/h 28 % 0.0 mm
19:50 13.7 °C 4.8 °C 1021.9 hPa NE 1.6 km/h 4.8 km/h 55 % 0.0 mm
19:52 21.2 °C 1.9 °C 1018.8 hPa WSW 3.7 km/h 3.7 km/h 28 % 0.0 mm
19:57 21.2 °C 1.9 °C 1018.8 hPa WSW 7.4 km/h 7.4 km/h 28 % 0.0 mm
20:00 13.5 °C 4.9 °C 1021.9 hPa NE 1.6 km/h 3.2 km/h 56 % 0.0 mm
20:02 21.1 °C 2.3 °C 1018.8 hPa WNW 6.1 km/h 6.1 km/h 29 % 0.0 mm
20:07 20.9 °C 2.2 °C 1018.8 hPa WNW 5.6 km/h 5.6 km/h 29 % 0.0 mm
20:10 13.2 °C 4.6 °C 1021.9 hPa Calm   1.6 km/h 56 % 0.0 mm
20:12 20.8 °C 2.1 °C 1018.8 hPa SSW 4.2 km/h 4.2 km/h 29 % 0.0 mm
20:17 20.7 °C 2.0 °C 1018.8 hPa West 3.7 km/h 3.7 km/h 29 % 0.0 mm
20:20 13.1 °C 5.0 °C 1021.9 hPa NE 1.6 km/h 1.6 km/h 58 % 0.0 mm
20:22 20.5 °C 1.8 °C 1018.8 hPa SW 3.7 km/h 3.7 km/h 29 % 0.0 mm
20:27 20.3 °C 1.7 °C 1019.9 hPa WSW 4.2 km/h 4.2 km/h 29 % 0.0 mm
20:30 12.6 °C 3.8 °C 1021.9 hPa NE 1.6 km/h 1.6 km/h 55 % 0.0 mm
20:32 20.2 °C 1.6 °C 1019.9 hPa West 5.6 km/h 5.6 km/h 29 % 0.0 mm
20:40 12.2 °C 3.4 °C 1021.9 hPa Calm   3.2 km/h 55 % 0.0 mm
20:42 19.9 °C 1.8 °C 1019.9 hPa West 3.7 km/h 3.7 km/h 30 % 0.0 mm
20:47 19.7 °C 1.6 °C 1019.9 hPa WSW 5.6 km/h 5.6 km/h 30 % 0.0 mm
20:50 12.0 °C 3.5 °C 1021.9 hPa Calm   3.2 km/h 56 % 0.0 mm
20:52 19.5 °C 1.4 °C 1019.9 hPa WNW 1.9 km/h   30 % 0.0 mm
20:57 19.4 °C 1.4 °C 1019.9 hPa WNW 3.7 km/h   30 % 0.0 mm
21:00 11.9 °C 3.9 °C 1021.9 hPa Calm     58 % 0.0 mm
21:02 19.2 °C 1.2 °C 1019.9 hPa WNW 3.7 km/h 3.7 km/h 30 % 0.0 mm
21:07 19.1 °C 1.1 °C 1019.9 hPa ENE 1.9 km/h   30 % 0.0 mm
21:10 11.7 °C 3.4 °C 1021.9 hPa Calm     57 % 0.0 mm
21:12 19.0 °C 1.0 °C 1019.9 hPa ENE 3.2 km/h 3.2 km/h 30 % 0.0 mm
21:17 18.9 °C 0.9 °C 1019.9 hPa North 3.9 km/h 3.9 km/h 30 % 0.0 mm
21:22 18.8 °C 1.3 °C 1019.9 hPa ENE 3.7 km/h 3.7 km/h 31 % 0.0 mm
21:27 18.7 °C 1.2 °C 1019.9 hPa ENE 4.2 km/h 4.2 km/h 31 % 0.0 mm
21:30 11.6 °C 3.8 °C 1021.9 hPa NNE 1.6 km/h 3.2 km/h 59 % 0.0 mm
21:32 18.4 °C 0.9 °C 1019.9 hPa NE 5.6 km/h 5.6 km/h 31 % 0.0 mm
21:37 18.2 °C 0.8 °C 1019.9 hPa NE 3.7 km/h 3.7 km/h 31 % 0.0 mm
21:40 11.5 °C 3.5 °C 1021.9 hPa ENE 1.6 km/h 3.2 km/h 58 % 0.0 mm
21:42 18.1 °C 0.7 °C 1020.9 hPa NNE 1.9 km/h 1.9 km/h 31 % 0.0 mm
21:47 17.9 °C 0.9 °C 1020.9 hPa NNE 1.9 km/h   32 % 0.0 mm
21:50 11.4 °C 3.4 °C 1021.9 hPa ENE 1.6 km/h 3.2 km/h 58 % 0.0 mm
21:52 17.7 °C 0.8 °C 1020.9 hPa NNE 1.9 km/h   32 % 0.0 mm
21:57 17.7 °C 0.8 °C 1020.9 hPa East 3.7 km/h 3.7 km/h 32 % 0.0 mm
22:00 11.2 °C 3.5 °C 1021.9 hPa ENE 1.6 km/h 3.2 km/h 59 % 0.0 mm
22:02 17.6 °C 0.7 °C 1020.9 hPa SW 3.9 km/h 3.9 km/h 32 % 0.0 mm
22:07 17.2 °C 0.3 °C 1020.9 hPa SW 3.7 km/h 3.7 km/h 32 % 0.0 mm
22:10 11.0 °C 3.5 °C 1021.9 hPa Calm   3.2 km/h 60 % 0.0 mm
22:12 17.2 °C 0.8 °C 1021.9 hPa WSW 2.3 km/h   33 % 0.0 mm
22:17 17.1 °C 0.7 °C 1021.9 hPa SSW 1.9 km/h   33 % 0.0 mm
22:20 10.6 °C 3.2 °C 1021.9 hPa Calm     60 % 0.0 mm
22:22 17.0 °C 1.0 °C 1021.9 hPa SE 4.2 km/h   34 % 0.0 mm
22:27 16.9 °C 1.3 °C 1021.9 hPa South 1.9 km/h   35 % 0.0 mm
22:30 10.3 °C 3.1 °C 1021.9 hPa Calm     61 % 0.0 mm
22:32 16.8 °C 1.6 °C 1021.9 hPa East 5.6 km/h 5.6 km/h 36 % 0.0 mm
22:37 16.6 °C 1.8 °C 1021.9 hPa ENE 7.4 km/h 7.4 km/h 37 % 0.0 mm
22:40 10.1 °C 2.9 °C 1021.9 hPa Calm   3.2 km/h 61 % 0.0 mm
22:42 16.4 °C 2.4 °C 1021.9 hPa ENE 5.6 km/h 5.6 km/h 39 % 0.0 mm
22:47 16.1 °C 2.5 °C 1021.9 hPa East 7.4 km/h 7.4 km/h 40 % 0.0 mm
22:50 9.8 °C 2.4 °C 1021.9 hPa Calm   1.6 km/h 60 % 0.0 mm
22:52 16.0 °C 2.7 °C 1021.9 hPa ENE 5.6 km/h 5.6 km/h 41 % 0.0 mm
23:00 9.6 °C 1.9 °C 1021.9 hPa WSW 3.2 km/h 3.2 km/h 59 % 0.0 mm
23:02 15.7 °C 3.4 °C 1021.9 hPa ENE 3.7 km/h   44 % 0.0 mm
23:07 15.6 °C 3.7 °C 1021.9 hPa Calm     45 % 0.0 mm
23:10 9.5 °C 2.6 °C 1021.9 hPa WSW 1.6 km/h 3.2 km/h 62 % 0.0 mm
23:17 15.3 °C 3.7 °C 1021.9 hPa East 4.7 km/h 4.7 km/h 46 % 0.0 mm
23:20 9.6 °C 2.4 °C 1021.9 hPa WSW 1.6 km/h 3.2 km/h 61 % 0.0 mm
23:22 15.2 °C 3.9 °C 1021.9 hPa ENE 5.6 km/h 5.6 km/h 47 % 0.0 mm
23:27 15.0 °C 4.1 °C 1021.9 hPa East 3.7 km/h 3.7 km/h 48 % 0.0 mm
23:30 9.8 °C 2.8 °C 1020.9 hPa Calm   1.6 km/h 62 % 0.0 mm
23:37 14.8 °C 4.4 °C 1021.9 hPa East 3.9 km/h 3.9 km/h 50 % 0.0 mm
23:40 9.9 °C 2.9 °C 1020.9 hPa Calm   1.6 km/h 62 % 0.0 mm
23:42 14.8 °C 4.2 °C 1021.9 hPa SW 2.6 km/h 2.6 km/h 49 % 0.0 mm
23:47 14.5 °C 4.2 °C 1021.9 hPa SW 1.9 km/h   50 % 0.0 mm
23:50 9.9 °C 2.9 °C 1020.9 hPa Calm   3.2 km/h 62 % 0.0 mm
23:52 14.4 °C 4.1 °C 1021.9 hPa Calm     50 % 0.0 mm
23:58 14.3 °C 4.3 °C 1021.9 hPa ENE 2.3 km/h 2.3 km/h 51 % 0.0 mm
Meteo Sesrovires
Elogis d' Weather Underground - 3.75 mb

Guio original per  Jim McMurry - jmcmurry@mwt.net Adaptat per a la plantilla per  Wim van der Kuil - Leuven-Template.eu

Trobareu la nostra informacio del temps tambe a:

Weather Underground

AWEKAS